createdAt,value
2023-05-22T00:01:06.847Z,6.30
2023-05-22T00:03:44.296Z,6.33
2023-05-22T00:06:12.720Z,5.80
2023-05-22T00:08:41.209Z,6.73
2023-05-22T00:11:09.724Z,6.23
2023-05-22T00:13:39.663Z,6.60
2023-05-22T00:16:08.649Z,6.50
2023-05-22T00:18:37.170Z,7.30
2023-05-22T00:21:06.579Z,6.93
2023-05-22T00:23:35.055Z,6.67
2023-05-22T00:26:03.729Z,5.90
2023-05-22T00:28:32.186Z,6.77
2023-05-22T00:31:02.398Z,6.30
2023-05-22T00:33:30.946Z,7.90
2023-05-22T00:35:59.506Z,5.67
2023-05-22T00:38:32.430Z,7.23
2023-05-22T00:41:01.281Z,6.37
2023-05-22T00:43:30.188Z,6.40
2023-05-22T00:45:59.187Z,6.47
2023-05-22T00:48:31.195Z,6.20
2023-05-22T00:51:00.619Z,6.87
2023-05-22T00:53:30.672Z,6.27
2023-05-22T00:56:01.400Z,7.37
2023-05-22T00:58:30.062Z,7.37
2023-05-22T01:00:59.070Z,5.80
2023-05-22T01:03:28.583Z,7.00
2023-05-22T01:05:58.858Z,6.50
2023-05-22T01:08:27.372Z,6.93
2023-05-22T01:11:06.411Z,7.00
2023-05-22T01:13:41.148Z,6.50
2023-05-22T01:16:13.049Z,6.37
2023-05-22T01:18:45.109Z,5.90
2023-05-22T01:21:18.365Z,6.57
2023-05-22T01:24:04.695Z,7.30
2023-05-22T01:26:37.284Z,6.53
2023-05-22T01:29:30.920Z,7.47
2023-05-22T01:32:02.318Z,6.77
2023-05-22T01:34:32.723Z,5.60
2023-05-22T01:37:02.779Z,7.47
2023-05-22T01:39:31.944Z,7.13
2023-05-22T01:42:00.956Z,7.40
2023-05-22T01:44:29.827Z,6.47
2023-05-22T01:47:00.572Z,7.33
2023-05-22T01:49:31.754Z,7.37
2023-05-22T01:52:06.210Z,6.40
2023-05-22T01:54:39.226Z,5.83
2023-05-22T01:57:09.756Z,6.63
2023-05-22T01:59:40.547Z,6.70
2023-05-22T02:02:11.909Z,7.03
2023-05-22T02:04:44.317Z,6.03
2023-05-22T02:07:31.560Z,7.10
2023-05-22T02:10:01.336Z,6.43
2023-05-22T02:12:30.178Z,7.20
2023-05-22T02:14:59.085Z,6.50
2023-05-22T02:17:27.806Z,5.90
2023-05-22T02:19:57.768Z,6.20
2023-05-22T02:22:26.801Z,6.50
2023-05-22T02:24:55.788Z,6.80
2023-05-22T02:27:24.379Z,6.87
2023-05-22T02:29:53.054Z,7.40
2023-05-22T02:32:21.628Z,6.10
2023-05-22T02:34:50.213Z,7.20
2023-05-22T02:37:20.112Z,7.30
2023-05-22T02:39:48.831Z,6.60
2023-05-22T02:42:17.378Z,6.83
2023-05-22T02:45:00.648Z,5.90
2023-05-22T02:47:29.337Z,7.00
2023-05-22T02:49:59.303Z,6.60
2023-05-22T02:52:29.625Z,6.37
2023-05-22T02:54:58.398Z,6.30
2023-05-22T02:57:27.131Z,6.50
2023-05-22T02:59:55.653Z,7.73
2023-05-22T03:02:24.294Z,7.07
2023-05-22T03:04:52.852Z,6.30
2023-05-22T03:07:21.553Z,8.00
2023-05-22T03:09:51.392Z,7.57
2023-05-22T03:12:19.846Z,6.93
2023-05-22T03:14:48.684Z,7.37
2023-05-22T03:17:36.651Z,6.57
2023-05-22T03:20:06.065Z,6.60
2023-05-22T03:22:34.456Z,6.00
2023-05-22T03:25:06.451Z,7.50
2023-05-22T03:27:35.027Z,7.27
2023-05-22T03:30:04.106Z,7.40
2023-05-22T03:32:33.024Z,6.20
2023-05-22T03:35:01.407Z,7.97
2023-05-22T03:37:31.239Z,6.83
2023-05-22T03:40:00.055Z,6.20
2023-05-22T03:42:30.390Z,7.17
2023-05-22T03:44:59.192Z,7.23
2023-05-22T03:47:27.907Z,7.10
2023-05-22T03:49:56.378Z,7.00
2023-05-22T03:52:24.838Z,6.90
2023-05-22T03:54:53.809Z,5.27
2023-05-22T03:57:22.502Z,7.23
2023-05-22T03:59:54.362Z,7.40
2023-05-22T04:02:26.365Z,7.50
2023-05-22T04:04:56.093Z,6.27
2023-05-22T04:07:24.864Z,6.97
2023-05-22T04:09:53.388Z,6.23
2023-05-22T04:12:22.918Z,8.37
2023-05-22T04:14:53.325Z,8.00
2023-05-22T04:17:22.533Z,6.50
2023-05-22T04:19:51.348Z,7.43
2023-05-22T04:22:19.840Z,6.73
2023-05-22T04:24:49.241Z,6.57
2023-05-22T04:27:18.368Z,6.90
2023-05-22T04:29:46.924Z,7.70
2023-05-22T04:32:18.511Z,6.80
2023-05-22T04:34:49.207Z,7.10
2023-05-22T04:37:20.333Z,6.80
2023-05-22T04:39:52.858Z,6.90
2023-05-22T04:42:22.680Z,6.60
2023-05-22T04:44:53.247Z,7.33
2023-05-22T04:47:23.370Z,8.60
2023-05-22T04:49:52.609Z,7.47
2023-05-22T04:52:21.468Z,6.97
2023-05-22T04:54:52.433Z,8.77
2023-05-22T04:57:21.397Z,7.10
2023-05-22T04:59:50.204Z,5.70
2023-05-22T05:02:18.847Z,7.27
2023-05-22T05:04:48.969Z,6.53
2023-05-22T05:07:18.785Z,7.10
2023-05-22T05:09:47.280Z,7.10
2023-05-22T05:12:15.841Z,7.40
2023-05-22T05:14:44.838Z,6.83
2023-05-22T05:17:22.449Z,6.40
2023-05-22T05:19:53.190Z,6.47
2023-05-22T05:22:21.794Z,6.30
2023-05-22T05:25:10.959Z,7.97
2023-05-22T05:27:40.527Z,7.30
2023-05-22T05:30:10.925Z,6.83
2023-05-22T05:32:40.420Z,6.83
2023-05-22T05:35:11.753Z,6.83
2023-05-22T05:37:40.319Z,5.67
2023-05-22T05:40:09.909Z,6.00
2023-05-22T05:42:38.565Z,4.60
2023-05-22T05:45:07.418Z,4.37
2023-05-22T05:47:35.859Z,5.97
2023-05-22T05:50:04.436Z,5.60
2023-05-22T05:52:34.748Z,5.80
2023-05-22T05:55:03.662Z,6.73
2023-05-22T05:57:33.427Z,5.80
2023-05-22T06:00:02.304Z,5.30
2023-05-22T06:02:31.313Z,5.57
2023-05-22T06:05:00.179Z,5.80
2023-05-22T06:07:28.677Z,4.43
2023-05-22T06:09:59.894Z,6.07
2023-05-22T06:12:37.472Z,4.87
2023-05-22T06:15:07.414Z,4.60
2023-05-22T06:17:37.636Z,4.17
2023-05-22T06:20:10.127Z,4.77
2023-05-22T06:22:38.755Z,4.33
2023-05-22T06:25:10.704Z,4.70
2023-05-22T06:27:39.697Z,3.60
2023-05-22T06:30:09.445Z,4.37
2023-05-22T06:32:38.624Z,4.70
2023-05-22T06:35:10.522Z,3.83
2023-05-22T06:37:39.643Z,3.23
2023-05-22T06:40:11.514Z,4.90
2023-05-22T06:42:40.226Z,4.07
2023-05-22T06:45:09.363Z,4.30
2023-05-22T06:47:38.557Z,3.70
2023-05-22T06:50:10.281Z,3.50
2023-05-22T06:52:39.357Z,3.10
2023-05-22T06:55:09.811Z,3.53
2023-05-22T06:57:45.675Z,3.50
2023-05-22T07:00:22.598Z,3.87
2023-05-22T07:02:53.658Z,3.40
2023-05-22T07:05:22.324Z,3.70
2023-05-22T07:07:51.054Z,3.73
2023-05-22T07:10:25.294Z,3.77
2023-05-22T07:12:54.267Z,4.07
2023-05-22T07:15:23.215Z,4.20
2023-05-22T07:17:51.771Z,3.77
2023-05-22T07:20:22.179Z,4.00
2023-05-22T07:22:51.304Z,3.50
2023-05-22T07:25:21.678Z,4.10
2023-05-22T07:27:53.623Z,3.37
2023-05-22T07:30:25.259Z,3.50
2023-05-22T07:32:55.438Z,3.53
2023-05-22T07:35:30.469Z,3.37
2023-05-22T07:38:00.144Z,3.30
2023-05-22T07:40:40.567Z,3.03
2023-05-22T07:43:20.362Z,3.50
2023-05-22T07:45:58.583Z,3.60
2023-05-22T07:48:28.402Z,3.13
2023-05-22T07:50:58.062Z,3.40
2023-05-22T07:53:33.160Z,4.13
2023-05-22T07:56:11.013Z,4.10
2023-05-22T07:58:40.440Z,3.60
2023-05-22T08:01:17.434Z,3.23
2023-05-22T08:03:55.420Z,3.60
2023-05-22T08:06:24.556Z,3.53
2023-05-22T08:09:03.401Z,4.00
2023-05-22T08:11:42.491Z,4.20
2023-05-22T08:14:18.784Z,4.47
2023-05-22T08:16:47.785Z,3.20
2023-05-22T08:19:23.738Z,3.87
2023-05-22T08:21:58.473Z,4.03
2023-05-22T08:24:36.482Z,4.60
2023-05-22T08:27:07.607Z,3.73
2023-05-22T08:29:36.834Z,4.00
2023-05-22T08:32:21.413Z,3.80
2023-05-22T08:34:57.362Z,4.03
2023-05-22T08:37:51.046Z,3.33
2023-05-22T08:40:31.638Z,3.63
2023-05-22T08:43:02.726Z,3.50
2023-05-22T08:45:34.640Z,4.00
2023-05-22T08:48:19.022Z,3.67
2023-05-22T08:53:55.282Z,3.78
2023-05-22T08:56:29.744Z,3.88
2023-05-22T08:59:01.082Z,3.72
2023-05-22T09:01:41.614Z,3.55
2023-05-22T09:04:12.851Z,4.22
2023-05-22T09:06:42.049Z,3.65
2023-05-22T09:12:10.885Z,4.32
2023-05-22T09:14:47.931Z,3.90
2023-05-22T09:17:20.046Z,4.72
2023-05-22T09:19:49.295Z,3.80
2023-05-22T09:22:18.958Z,3.60
2023-05-22T09:24:49.356Z,4.82
2023-05-22T09:27:18.125Z,4.57
2023-05-22T09:29:52.266Z,4.00
2023-05-22T09:32:21.210Z,3.60
2023-05-22T09:34:49.949Z,4.40
2023-05-22T09:37:19.348Z,3.90
2023-05-22T09:39:48.441Z,4.27
2023-05-22T09:42:18.308Z,5.10
2023-05-22T09:44:51.619Z,5.20
2023-05-22T09:47:24.357Z,4.40
2023-05-22T09:49:53.840Z,4.27
2023-05-22T09:52:24.657Z,5.10
2023-05-22T09:54:55.643Z,5.20
2023-05-22T09:57:25.823Z,5.13
2023-05-22T10:00:13.747Z,4.50
2023-05-22T10:02:44.692Z,5.53
2023-05-22T10:05:16.534Z,4.67
2023-05-22T10:07:50.074Z,5.37
2023-05-22T10:10:20.449Z,4.53
2023-05-22T10:12:56.621Z,4.53
2023-05-22T10:15:25.642Z,4.37
2023-05-22T10:17:56.079Z,5.20
2023-05-22T10:20:25.366Z,4.70
2023-05-22T10:22:54.581Z,4.73
2023-05-22T10:25:24.438Z,4.47
2023-05-22T10:27:54.369Z,4.37
2023-05-22T10:30:26.537Z,4.97
2023-05-22T10:32:59.027Z,4.50
2023-05-22T10:35:31.252Z,4.30
2023-05-22T10:38:05.798Z,4.83
2023-05-22T10:40:36.362Z,5.00
2023-05-22T10:43:05.412Z,4.50
2023-05-22T10:45:38.814Z,4.23
2023-05-22T10:48:10.826Z,5.20
2023-05-22T10:50:40.056Z,4.90
2023-05-22T10:53:37.982Z,5.27
2023-05-22T10:56:19.094Z,5.90
2023-05-22T10:59:08.813Z,5.73
2023-05-22T11:02:02.063Z,5.00
2023-05-22T11:04:33.704Z,6.23
2023-05-22T11:07:08.577Z,5.30
2023-05-22T11:09:48.525Z,6.30
2023-05-22T11:12:19.557Z,6.30
2023-05-22T11:14:54.269Z,4.97
2023-05-22T11:17:31.931Z,6.20
2023-05-22T11:20:28.244Z,5.10
2023-05-22T11:25:55.501Z,6.37
2023-05-22T11:31:14.772Z,5.33
2023-05-22T11:34:01.005Z,4.70
2023-05-22T11:36:59.520Z,4.43
2023-05-22T11:42:12.204Z,4.93
2023-05-22T11:44:47.215Z,5.00
2023-05-22T11:47:16.952Z,5.20
2023-05-22T11:49:52.139Z,5.00
2023-05-22T11:52:42.337Z,5.83
2023-05-22T11:55:20.176Z,4.03
2023-05-22T11:57:48.731Z,5.13
2023-05-22T12:00:33.206Z,5.13
2023-05-22T12:03:04.523Z,4.93
2023-05-22T12:05:34.992Z,4.30
2023-05-22T12:08:04.492Z,5.23
2023-05-22T12:10:52.623Z,4.27
2023-05-22T12:17:13.490Z,4.60
2023-05-22T12:22:44.962Z,4.47
2023-05-22T12:25:20.764Z,4.50
2023-05-22T12:30:53.795Z,4.13
2023-05-22T12:33:31.035Z,4.23
2023-05-22T12:36:09.417Z,4.20
2023-05-22T12:42:10.934Z,4.97
2023-05-22T12:45:09.160Z,4.50
2023-05-22T12:53:26.909Z,4.50
2023-05-22T12:55:55.681Z,6.00
2023-05-22T12:58:25.010Z,6.00
2023-05-22T13:08:47.277Z,5.33
2023-05-22T13:14:17.232Z,4.97
2023-05-22T13:17:09.130Z,4.90
2023-05-22T13:19:51.484Z,5.20
2023-05-22T13:22:21.450Z,5.80
2023-05-22T13:25:03.080Z,5.30
2023-05-22T13:27:49.093Z,5.03
2023-05-22T13:30:18.279Z,5.50
2023-05-22T13:32:54.798Z,4.70
2023-05-22T13:35:52.684Z,4.57
2023-05-22T13:38:23.353Z,5.60
2023-05-22T13:41:21.929Z,4.63
2023-05-22T13:43:50.773Z,5.47
2023-05-22T13:46:22.121Z,4.50
2023-05-22T13:51:35.883Z,4.03
2023-05-22T13:54:09.733Z,4.37
2023-05-22T13:56:52.401Z,4.00
2023-05-22T13:59:24.855Z,3.43
2023-05-22T14:02:16.847Z,3.60
2023-05-22T14:04:59.620Z,4.30
2023-05-22T14:07:50.097Z,3.80
2023-05-22T14:10:28.114Z,3.53
2023-05-22T14:16:00.909Z,3.87
2023-05-22T14:21:14.489Z,3.97
2023-05-22T14:23:47.349Z,3.73
2023-05-22T14:26:20.026Z,3.60
2023-05-22T14:28:49.174Z,3.67
2023-05-22T14:31:18.107Z,3.80
2023-05-22T14:33:52.730Z,3.60
2023-05-22T14:36:21.668Z,3.43
2023-05-22T14:38:54.461Z,2.93
2023-05-22T14:41:35.927Z,3.80
2023-05-22T14:44:04.496Z,3.70
2023-05-22T14:46:33.642Z,3.93
2023-05-22T14:49:07.697Z,4.37
2023-05-22T14:51:36.720Z,4.80
2023-05-22T14:54:05.840Z,4.10
2023-05-22T14:56:36.192Z,4.30
2023-05-22T14:59:05.130Z,3.30
2023-05-22T15:01:33.726Z,3.70
2023-05-22T15:04:02.173Z,4.13
2023-05-22T15:06:30.914Z,4.10
2023-05-22T15:08:59.704Z,3.87
2023-05-22T15:11:28.463Z,4.00
2023-05-22T15:13:58.810Z,4.20
2023-05-22T15:16:29.677Z,3.80
2023-05-22T15:18:59.482Z,3.57
2023-05-22T15:21:28.452Z,4.47
2023-05-22T15:23:57.501Z,3.83
2023-05-22T15:26:26.305Z,3.60
2023-05-22T15:29:01.119Z,3.20
2023-05-22T15:31:31.779Z,3.63
2023-05-22T15:34:09.627Z,3.50
2023-05-22T15:36:38.211Z,2.87
2023-05-22T15:39:06.796Z,2.77
2023-05-22T15:41:35.524Z,2.60
2023-05-22T15:44:03.882Z,2.33
2023-05-22T15:46:34.590Z,2.63
2023-05-22T15:49:03.480Z,2.60
2023-05-22T15:51:39.834Z,2.23
2023-05-22T15:54:09.696Z,2.23
2023-05-22T15:56:38.296Z,3.50
2023-05-22T15:59:06.829Z,2.67
2023-05-22T16:01:37.743Z,2.83
2023-05-22T16:04:06.959Z,2.70
2023-05-22T16:06:35.552Z,2.27
2023-05-22T16:09:04.518Z,2.60
2023-05-22T16:11:42.228Z,2.53
2023-05-22T16:14:11.102Z,2.90
2023-05-22T16:16:41.086Z,3.23
2023-05-22T16:19:10.399Z,2.80
2023-05-22T16:21:38.934Z,2.80
2023-05-22T16:24:08.895Z,2.50
2023-05-22T16:26:39.490Z,2.70
2023-05-22T16:29:09.592Z,3.17
2023-05-22T16:31:39.514Z,2.80
2023-05-22T16:34:09.849Z,2.17
2023-05-22T16:36:38.536Z,2.87
2023-05-22T16:39:06.990Z,2.60
2023-05-22T16:41:35.664Z,2.70
2023-05-22T16:44:08.424Z,2.67
2023-05-22T16:46:36.802Z,2.47
2023-05-22T16:49:05.752Z,2.60
2023-05-22T16:51:35.557Z,2.40
2023-05-22T16:54:07.053Z,2.30
2023-05-22T16:56:35.698Z,3.23
2023-05-22T16:59:06.444Z,2.87
2023-05-22T17:01:35.027Z,2.80
2023-05-22T17:04:03.702Z,3.00
2023-05-22T17:06:32.355Z,2.80
2023-05-22T17:09:02.318Z,3.40
2023-05-22T17:11:30.788Z,2.60
2023-05-22T17:13:59.204Z,3.13
2023-05-22T17:16:27.922Z,2.90
2023-05-22T17:18:56.544Z,3.23
2023-05-22T17:21:24.885Z,3.50
2023-05-22T17:23:53.353Z,3.63
2023-05-22T17:26:23.353Z,3.00
2023-05-22T17:28:51.731Z,3.10
2023-05-22T17:31:21.276Z,3.33
2023-05-22T17:33:58.445Z,2.80
2023-05-22T17:36:26.727Z,3.50
2023-05-22T17:38:55.314Z,2.70
2023-05-22T17:41:26.793Z,2.80
2023-05-22T17:43:57.171Z,3.63
2023-05-22T17:46:26.747Z,2.60
2023-05-22T17:48:55.959Z,2.87
2023-05-22T17:51:24.375Z,3.27
2023-05-22T17:53:56.025Z,2.83
2023-05-22T17:56:26.679Z,2.67
2023-05-22T17:58:55.365Z,2.80
2023-05-22T18:01:24.688Z,3.17
2023-05-22T18:03:54.093Z,3.17
2023-05-22T18:06:24.470Z,3.63
2023-05-22T18:08:53.283Z,3.40
2023-05-22T18:11:22.961Z,3.20
2023-05-22T18:13:54.247Z,3.20
2023-05-22T18:16:23.147Z,3.07
2023-05-22T18:18:52.172Z,3.17
2023-05-22T18:21:20.719Z,3.33
2023-05-22T18:23:49.427Z,4.07
2023-05-22T18:26:18.587Z,4.20
2023-05-22T18:28:48.484Z,4.20
2023-05-22T18:31:19.592Z,4.33
2023-05-22T18:33:48.236Z,4.60
2023-05-22T18:36:17.134Z,4.47
2023-05-22T18:38:45.602Z,4.43
2023-05-22T18:41:14.370Z,4.70
2023-05-22T18:43:43.524Z,4.33
2023-05-22T18:46:12.258Z,4.40
2023-05-22T18:48:42.135Z,3.77
2023-05-22T18:51:11.646Z,3.93
2023-05-22T18:53:40.844Z,3.70
2023-05-22T18:56:10.019Z,4.10
2023-05-22T18:58:41.443Z,4.30
2023-05-22T19:01:10.478Z,4.00
2023-05-22T19:03:40.033Z,4.83
2023-05-22T19:09:26.734Z,3.83
2023-05-22T19:11:57.346Z,4.43
2023-05-22T19:14:26.574Z,4.83
2023-05-22T19:16:55.193Z,4.50
2023-05-22T19:19:24.210Z,4.17
2023-05-22T19:21:53.215Z,4.20
2023-05-22T19:24:22.135Z,4.27
2023-05-22T19:26:52.241Z,3.73
2023-05-22T19:29:20.770Z,4.90
2023-05-22T19:31:49.585Z,4.00
2023-05-22T19:34:18.866Z,4.10
2023-05-22T19:36:52.737Z,4.87
2023-05-22T19:39:21.591Z,4.20
2023-05-22T19:41:54.354Z,4.43
2023-05-22T19:47:21.672Z,5.20
2023-05-22T19:49:53.471Z,4.93
2023-05-22T19:52:22.990Z,4.93
2023-05-22T19:54:58.902Z,5.20
2023-05-22T19:57:28.146Z,5.17
2023-05-22T20:00:00.743Z,6.03
2023-05-22T20:02:29.421Z,5.70
2023-05-22T20:05:02.923Z,5.80
2023-05-22T20:07:31.456Z,6.63
2023-05-22T20:10:06.977Z,5.63
2023-05-22T20:12:35.987Z,5.00
2023-05-22T20:15:06.990Z,4.60
2023-05-22T20:17:41.874Z,5.20
2023-05-22T20:20:11.228Z,5.60
2023-05-22T20:22:39.745Z,4.87
2023-05-22T20:25:13.119Z,5.43
2023-05-22T20:27:41.767Z,5.73
2023-05-22T20:30:15.919Z,5.23
2023-05-22T20:32:47.321Z,4.90
2023-05-22T20:35:19.154Z,4.50
2023-05-22T20:37:49.219Z,5.50
2023-05-22T20:40:18.227Z,5.20
2023-05-22T20:42:53.570Z,6.03
2023-05-22T20:45:23.981Z,5.80
2023-05-22T20:47:55.390Z,5.47
2023-05-22T20:50:30.156Z,4.80
2023-05-22T20:53:00.251Z,5.40
2023-05-22T20:55:30.925Z,5.47
2023-05-22T20:58:11.551Z,6.00
2023-05-22T21:00:49.469Z,5.73
2023-05-22T21:03:29.360Z,4.80
2023-05-22T21:05:58.522Z,4.80
2023-05-22T21:08:37.935Z,4.83
2023-05-22T21:11:08.598Z,5.30
2023-05-22T21:13:37.645Z,4.80
2023-05-22T21:16:12.444Z,6.00
2023-05-22T21:18:41.520Z,6.30
2023-05-22T21:21:10.062Z,5.70
2023-05-22T21:23:40.474Z,5.40
2023-05-22T21:26:09.726Z,5.30
2023-05-22T21:28:38.306Z,5.10
2023-05-22T21:31:09.734Z,6.00
2023-05-22T21:33:38.657Z,6.50
2023-05-22T21:36:09.898Z,5.50
2023-05-22T21:38:39.010Z,5.37
2023-05-22T21:41:17.501Z,6.67
2023-05-22T21:43:47.755Z,6.07
2023-05-22T21:46:17.751Z,5.13
2023-05-22T21:48:47.940Z,5.33
2023-05-22T21:51:16.862Z,4.87
2023-05-22T21:53:45.494Z,6.37
2023-05-22T21:56:20.253Z,5.10
2023-05-22T21:58:50.329Z,5.83
2023-05-22T22:01:20.454Z,6.50
2023-05-22T22:03:49.478Z,5.03
2023-05-22T22:06:18.474Z,6.40
2023-05-22T22:08:48.584Z,5.60
2023-05-22T22:11:17.132Z,5.90
2023-05-22T22:13:46.274Z,7.43
2023-05-22T22:16:22.451Z,5.67
2023-05-22T22:18:52.714Z,6.30
2023-05-22T22:21:21.471Z,5.37
2023-05-22T22:23:50.035Z,5.43
2023-05-22T22:26:18.691Z,6.23
2023-05-22T22:28:47.239Z,6.80
2023-05-22T22:31:18.926Z,5.80
2023-05-22T22:33:47.719Z,5.33
2023-05-22T22:36:24.756Z,6.23
2023-05-22T22:38:54.342Z,7.27
2023-05-22T22:41:23.325Z,6.67
2023-05-22T22:43:54.581Z,5.77
2023-05-22T22:46:23.565Z,5.97
2023-05-22T22:48:52.483Z,6.23
2023-05-22T22:51:34.686Z,6.13
2023-05-22T22:54:03.664Z,6.33
2023-05-22T22:56:33.179Z,5.77
2023-05-22T22:59:02.508Z,5.10
2023-05-22T23:01:32.958Z,6.70
2023-05-22T23:04:11.519Z,5.57
2023-05-22T23:06:42.743Z,6.80
2023-05-22T23:09:11.680Z,5.20
2023-05-22T23:11:41.209Z,5.80
2023-05-22T23:14:11.346Z,5.90
2023-05-22T23:16:41.373Z,6.23
2023-05-22T23:19:10.504Z,6.73
2023-05-22T23:21:39.550Z,6.30
2023-05-22T23:24:10.832Z,5.60
2023-05-22T23:26:39.610Z,6.70
2023-05-22T23:29:08.232Z,6.17
2023-05-22T23:31:37.156Z,5.50
2023-05-22T23:34:05.989Z,5.40
2023-05-22T23:36:37.695Z,6.00
2023-05-22T23:39:06.127Z,5.43
2023-05-22T23:41:37.242Z,5.30
2023-05-22T23:44:06.288Z,6.10
2023-05-22T23:46:36.371Z,5.67
2023-05-22T23:49:05.717Z,5.83
2023-05-22T23:51:34.088Z,6.63
2023-05-22T23:54:02.726Z,5.70
2023-05-22T23:56:34.147Z,5.37
2023-05-22T23:59:04.081Z,5.70
